Current Observation

FTSO31 AGGG 252310
TAF AGGH 252310Z 2600/2624 11008KT 9999 FEW020
T 32 32 30 29 Q 1012 1010 1010 1012=
  
TAF AGGM 252310Z 2600/2624 VRB03KT 9999 FEW020
Q 1011 1009 1009 1011=

TAF AGGN 252310Z 2600/2624 VRB03KT 9999 FEW020
Q 1011 1009 1009 1011=

TAF AGGC 252310Z 2600/2624 VRB03KT 9999 FEW020
Q 1011 1009 1009 1011=

TAF AGGA 252310Z 2600/2624 VRB03KT 9999 FEW020
Q 1011 1009 1009 1011=

TAF AGGK 252310Z 2600/2624 070008KT 9999 FEW020
Q 1012 1010 1010 1012=

TAF AGGL 252310Z 2600/2624 09010KT 9999 FEW020
Q 1013 1011 1011 1013=

TAF AGGR 252310Z 2600/2624 09010KT 9999 FEW020
Q 1014 1012 1012 1014=

Last modified on Tuesday, 26 September 2017 10:11

Weather Outlook

Support and Docs

Modern Design
Go to top